Airfield :
LOGIN :

Register | Disclaimer

   EN    FR    IT 

 










Legend :    VFR   Marginal VFR   IFR   Intensive IFR   Very Intensive IFR
Visi :
Ceiling :
>= 8 km
>= 3000ft
5 to 8 km
1000 to 3000 ft
1500m to 5 km
500 to 1000 ft
800 to 1500m
200 to 500 ft
< 800m
< 200 ft
Symbols :   Thunderstorms  Fog  Heavy snow  Heavy precipitations  Wind > 20 kt
SIGMETs :     Misc.  Thunderstorms  Icing  Turbulence  Mountain Waves  Volcanic Ashes






- Airport Elevation : 17 ft
- IATA code : RHO


LGRP - Diagoras

CURRENT METAR :
  • 080950Z 15005KT 120V190 9999 SCT020 19/12 Q1019 NOSIG

EXPIRED METARs :
  • 080920Z 15004KT 100V200 9999 SCT020 18/13 Q1019 NOSIG
  • 080850Z 14005KT 090V200 9999 SCT020 18/13 Q1019 NOSIG
  • 080820Z 11004KT 9999 FEW016TCU SCT025 18/12 Q1019 NOSIG
  • 080750Z 13004KT 9999 FEW016TCU SCT025 18/12 Q1019 NOSIG
  • 080720Z 12004KT 9999 SCT018 17/12 Q1019 NOSIG
  • 080650Z 14005KT 9999 SCT018 17/12 Q1019 NOSIG

TAF TAF LGRP
Valid from the 08 at 06:00 until the 09 at 06:00 UTC


080500Z 0806/0906 15013KT 9999 SCT018 SCT050
PROB40
TEMPO 0806/0824 5000 RA SCT014 FEW018TCU BKN025
PROB30
TEMPO 0806/0824 2000 TSRA SCT008 FEW018CB BKN020



MET'MAP, your aeronautical weather chart ! - Copyright ORBIFLY December 2007 - Disclaimer

ORBIFLY MET'MAP TEAM :

Programming & Development : Alexandra Zaïnal
Original concept : Baudouin d'Aumeries
Technical & hardware support : Manuel Goepfert
Assistance : Marc-Olivier Méhu




SOURCES & CREDITS :

   NOAA